sensor_id;sensor_type;location;lat;lon;timestamp;P1;durP1;ratioP1;P2;durP2;ratioP2
19842;SDS011;10082;51.038;6.992;2024-01-25T00:01:19;29.42;;;7.13;;
19842;SDS011;10082;51.038;6.992;2024-01-25T00:03:46;23.20;;;6.63;;
19842;SDS011;10082;51.038;6.992;2024-01-25T00:06:13;31.83;;;8.57;;
19842;SDS011;10082;51.038;6.992;2024-01-25T00:08:40;32.90;;;8.05;;
19842;SDS011;10082;51.038;6.992;2024-01-25T00:11:07;26.45;;;6.63;;
19842;SDS011;10082;51.038;6.992;2024-01-25T00:13:35;28.48;;;7.78;;
19842;SDS011;10082;51.038;6.992;2024-01-25T00:16:04;33.60;;;8.45;;
19842;SDS011;10082;51.038;6.992;2024-01-25T00:18:32;22.67;;;7.28;;
19842;SDS011;10082;51.038;6.992;2024-01-25T00:20:59;26.58;;;8.02;;
19842;SDS011;10082;51.038;6.992;2024-01-25T00:23:26;31.83;;;7.38;;
19842;SDS011;10082;51.038;6.992;2024-01-25T00:25:53;25.30;;;6.95;;
19842;SDS011;10082;51.038;6.992;2024-01-25T00:28:23;28.77;;;7.63;;
19842;SDS011;10082;51.038;6.992;2024-01-25T00:30:50;30.83;;;7.63;;
19842;SDS011;10082;51.038;6.992;2024-01-25T00:33:19;24.77;;;7.38;;
19842;SDS011;10082;51.038;6.992;2024-01-25T00:35:46;27.52;;;7.05;;
19842;SDS011;10082;51.038;6.992;2024-01-25T00:38:13;27.23;;;7.07;;
19842;SDS011;10082;51.038;6.992;2024-01-25T00:40:41;29.08;;;7.53;;
19842;SDS011;10082;51.038;6.992;2024-01-25T00:43:09;22.45;;;6.60;;
19842;SDS011;10082;51.038;6.992;2024-01-25T00:45:36;28.15;;;6.90;;
19842;SDS011;10082;51.038;6.992;2024-01-25T00:48:04;29.17;;;7.53;;
19842;SDS011;10082;51.038;6.992;2024-01-25T00:50:33;22.02;;;6.40;;
19842;SDS011;10082;51.038;6.992;2024-01-25T00:53:01;26.58;;;7.20;;
19842;SDS011;10082;51.038;6.992;2024-01-25T00:55:28;28.13;;;7.47;;
19842;SDS011;10082;51.038;6.992;2024-01-25T00:57:56;24.98;;;6.70;;
19842;SDS011;10082;51.038;6.992;2024-01-25T01:00:25;25.52;;;7.68;;
19842;SDS011;10082;51.038;6.992;2024-01-25T01:02:53;26.67;;;7.38;;
19842;SDS011;10082;51.038;6.992;2024-01-25T01:05:20;31.13;;;7.50;;
19842;SDS011;10082;51.038;6.992;2024-01-25T01:07:50;29.35;;;7.45;;
19842;SDS011;10082;51.038;6.992;2024-01-25T01:10:17;33.22;;;7.80;;
19842;SDS011;10082;51.038;6.992;2024-01-25T01:12:44;32.05;;;6.88;;
19842;SDS011;10082;51.038;6.992;2024-01-25T01:15:12;29.95;;;7.75;;
19842;SDS011;10082;51.038;6.992;2024-01-25T01:17:39;27.58;;;7.05;;
19842;SDS011;10082;51.038;6.992;2024-01-25T01:20:06;23.98;;;6.45;;
19842;SDS011;10082;51.038;6.992;2024-01-25T01:22:34;22.60;;;6.07;;
19842;SDS011;10082;51.038;6.992;2024-01-25T01:25:09;28.27;;;6.20;;
19842;SDS011;10082;51.038;6.992;2024-01-25T01:27:36;26.60;;;7.03;;
19842;SDS011;10082;51.038;6.992;2024-01-25T01:30:03;26.73;;;6.20;;
19842;SDS011;10082;51.038;6.992;2024-01-25T01:32:33;28.90;;;7.03;;
19842;SDS011;10082;51.038;6.992;2024-01-25T01:35:00;28.80;;;6.78;;
19842;SDS011;10082;51.038;6.992;2024-01-25T01:37:28;27.48;;;7.28;;
19842;SDS011;10082;51.038;6.992;2024-01-25T01:39:55;29.60;;;7.63;;
19842;SDS011;10082;51.038;6.992;2024-01-25T01:42:25;24.73;;;7.18;;
19842;SDS011;10082;51.038;6.992;2024-01-25T01:44:53;31.23;;;6.95;;
19842;SDS011;10082;51.038;6.992;2024-01-25T01:47:20;24.40;;;6.30;;
19842;SDS011;10082;51.038;6.992;2024-01-25T01:49:47;27.83;;;6.80;;
19842;SDS011;10082;51.038;6.992;2024-01-25T01:52:15;28.77;;;7.03;;
19842;SDS011;10082;51.038;6.992;2024-01-25T01:54:43;26.48;;;6.70;;
19842;SDS011;10082;51.038;6.992;2024-01-25T01:57:12;32.42;;;7.60;;
19842;SDS011;10082;51.038;6.992;2024-01-25T01:59:41;29.35;;;7.15;;
19842;SDS011;10082;51.038;6.992;2024-01-25T02:02:08;28.10;;;6.85;;
19842;SDS011;10082;51.038;6.992;2024-01-25T02:04:35;31.30;;;7.22;;
19842;SDS011;10082;51.038;6.992;2024-01-25T02:07:02;29.00;;;7.15;;
19842;SDS011;10082;51.038;6.992;2024-01-25T02:09:31;25.15;;;7.10;;
19842;SDS011;10082;51.038;6.992;2024-01-25T02:11:59;33.20;;;7.07;;
19842;SDS011;10082;51.038;6.992;2024-01-25T02:14:27;22.58;;;6.68;;
19842;SDS011;10082;51.038;6.992;2024-01-25T02:16:55;25.20;;;6.72;;
19842;SDS011;10082;51.038;6.992;2024-01-25T02:19:24;26.73;;;6.55;;
19842;SDS011;10082;51.038;6.992;2024-01-25T02:21:51;29.67;;;6.85;;
19842;SDS011;10082;51.038;6.992;2024-01-25T02:24:21;31.27;;;7.53;;
19842;SDS011;10082;51.038;6.992;2024-01-25T02:26:48;31.02;;;6.93;;
19842;SDS011;10082;51.038;6.992;2024-01-25T02:29:15;24.20;;;6.30;;
19842;SDS011;10082;51.038;6.992;2024-01-25T02:31:43;24.27;;;7.30;;
19842;SDS011;10082;51.038;6.992;2024-01-25T02:34:10;29.17;;;7.55;;
19842;SDS011;10082;51.038;6.992;2024-01-25T02:36:37;27.73;;;6.82;;
19842;SDS011;10082;51.038;6.992;2024-01-25T02:39:03;29.80;;;7.25;;
19842;SDS011;10082;51.038;6.992;2024-01-25T02:41:33;27.42;;;7.25;;
19842;SDS011;10082;51.038;6.992;2024-01-25T02:44:00;28.08;;;6.93;;
19842;SDS011;10082;51.038;6.992;2024-01-25T02:46:27;25.83;;;7.00;;
19842;SDS011;10082;51.038;6.992;2024-01-25T02:48:53;26.50;;;6.50;;
19842;SDS011;10082;51.038;6.992;2024-01-25T02:51:20;27.48;;;7.53;;
19842;SDS011;10082;51.038;6.992;2024-01-25T02:53:47;26.27;;;7.18;;
19842;SDS011;10082;51.038;6.992;2024-01-25T02:56:14;23.77;;;6.55;;
19842;SDS011;10082;51.038;6.992;2024-01-25T02:58:42;23.55;;;6.63;;
19842;SDS011;10082;51.038;6.992;2024-01-25T03:01:10;27.80;;;7.72;;
19842;SDS011;10082;51.038;6.992;2024-01-25T03:03:37;30.15;;;7.07;;
19842;SDS011;10082;51.038;6.992;2024-01-25T03:06:05;25.85;;;6.95;;
19842;SDS011;10082;51.038;6.992;2024-01-25T03:08:34;29.55;;;7.68;;
19842;SDS011;10082;51.038;6.992;2024-01-25T03:11:01;25.70;;;6.75;;
19842;SDS011;10082;51.038;6.992;2024-01-25T03:13:29;28.17;;;7.68;;
19842;SDS011;10082;51.038;6.992;2024-01-25T03:15:58;27.63;;;8.32;;
19842;SDS011;10082;51.038;6.992;2024-01-25T03:18:25;24.58;;;7.35;;
19842;SDS011;10082;51.038;6.992;2024-01-25T03:20:52;26.08;;;7.20;;
19842;SDS011;10082;51.038;6.992;2024-01-25T03:23:19;28.80;;;7.90;;
19842;SDS011;10082;51.038;6.992;2024-01-25T03:25:46;29.73;;;7.65;;
19842;SDS011;10082;51.038;6.992;2024-01-25T03:28:13;30.77;;;8.02;;
19842;SDS011;10082;51.038;6.992;2024-01-25T03:30:41;28.02;;;6.82;;
19842;SDS011;10082;51.038;6.992;2024-01-25T03:33:10;27.48;;;7.47;;
19842;SDS011;10082;51.038;6.992;2024-01-25T03:35:37;29.42;;;6.75;;
19842;SDS011;10082;51.038;6.992;2024-01-25T03:38:04;27.35;;;7.45;;
19842;SDS011;10082;51.038;6.992;2024-01-25T03:40:32;26.25;;;6.93;;
19842;SDS011;10082;51.038;6.992;2024-01-25T03:42:59;28.05;;;6.72;;
19842;SDS011;10082;51.038;6.992;2024-01-25T03:45:26;37.47;;;8.43;;
19842;SDS011;10082;51.038;6.992;2024-01-25T03:47:53;28.02;;;7.47;;
19842;SDS011;10082;51.038;6.992;2024-01-25T03:50:21;30.80;;;7.78;;
19842;SDS011;10082;51.038;6.992;2024-01-25T03:52:48;29.83;;;7.68;;
19842;SDS011;10082;51.038;6.992;2024-01-25T03:55:15;25.83;;;7.80;;
19842;SDS011;10082;51.038;6.992;2024-01-25T03:57:42;26.15;;;6.07;;
19842;SDS011;10082;51.038;6.992;2024-01-25T04:00:10;28.85;;;7.60;;
19842;SDS011;10082;51.038;6.992;2024-01-25T04:02:38;27.50;;;7.20;;
19842;SDS011;10082;51.038;6.992;2024-01-25T04:05:05;33.15;;;7.70;;
19842;SDS011;10082;51.038;6.992;2024-01-25T04:07:35;31.73;;;8.00;;
19842;SDS011;10082;51.038;6.992;2024-01-25T04:10:02;26.17;;;7.93;;
19842;SDS011;10082;51.038;6.992;2024-01-25T04:12:29;36.15;;;7.90;;
19842;SDS011;10082;51.038;6.992;2024-01-25T04:14:56;37.92;;;8.10;;
19842;SDS011;10082;51.038;6.992;2024-01-25T04:17:23;25.90;;;7.45;;
19842;SDS011;10082;51.038;6.992;2024-01-25T04:19:50;31.17;;;8.07;;
19842;SDS011;10082;51.038;6.992;2024-01-25T04:22:17;26.95;;;7.50;;
19842;SDS011;10082;51.038;6.992;2024-01-25T04:24:53;30.00;;;8.77;;
19842;SDS011;10082;51.038;6.992;2024-01-25T04:27:21;44.70;;;8.88;;
19842;SDS011;10082;51.038;6.992;2024-01-25T04:29:47;39.63;;;8.15;;
19842;SDS011;10082;51.038;6.992;2024-01-25T04:32:15;29.98;;;7.45;;
19842;SDS011;10082;51.038;6.992;2024-01-25T04:34:43;31.30;;;7.80;;
19842;SDS011;10082;51.038;6.992;2024-01-25T04:37:12;30.83;;;7.10;;
19842;SDS011;10082;51.038;6.992;2024-01-25T04:39:45;34.92;;;8.30;;
19842;SDS011;10082;51.038;6.992;2024-01-25T04:42:13;31.05;;;7.07;;
19842;SDS011;10082;51.038;6.992;2024-01-25T04:44:40;29.52;;;7.20;;
19842;SDS011;10082;51.038;6.992;2024-01-25T04:47:21;28.13;;;7.03;;
19842;SDS011;10082;51.038;6.992;2024-01-25T04:49:49;32.42;;;8.07;;
19842;SDS011;10082;51.038;6.992;2024-01-25T04:52:16;33.50;;;7.25;;
19842;SDS011;10082;51.038;6.992;2024-01-25T04:54:43;26.77;;;7.65;;
19842;SDS011;10082;51.038;6.992;2024-01-25T04:57:10;34.35;;;8.15;;
19842;SDS011;10082;51.038;6.992;2024-01-25T04:59:38;30.40;;;7.35;;
19842;SDS011;10082;51.038;6.992;2024-01-25T05:02:07;37.80;;;8.25;;
19842;SDS011;10082;51.038;6.992;2024-01-25T05:04:34;25.58;;;7.72;;
19842;SDS011;10082;51.038;6.992;2024-01-25T05:07:01;37.60;;;8.40;;
19842;SDS011;10082;51.038;6.992;2024-01-25T05:09:28;31.02;;;7.70;;
19842;SDS011;10082;51.038;6.992;2024-01-25T05:11:55;31.58;;;8.00;;
19842;SDS011;10082;51.038;6.992;2024-01-25T05:14:24;33.15;;;7.28;;
19842;SDS011;10082;51.038;6.992;2024-01-25T05:16:53;33.67;;;7.45;;
19842;SDS011;10082;51.038;6.992;2024-01-25T05:19:20;40.05;;;9.55;;
19842;SDS011;10082;51.038;6.992;2024-01-25T05:21:47;27.98;;;7.07;;
19842;SDS011;10082;51.038;6.992;2024-01-25T05:24:14;30.90;;;8.30;;
19842;SDS011;10082;51.038;6.992;2024-01-25T05:26:41;33.65;;;8.10;;
19842;SDS011;10082;51.038;6.992;2024-01-25T05:29:08;31.88;;;8.13;;
19842;SDS011;10082;51.038;6.992;2024-01-25T05:31:36;32.63;;;7.82;;
19842;SDS011;10082;51.038;6.992;2024-01-25T05:34:04;33.67;;;8.05;;
19842;SDS011;10082;51.038;6.992;2024-01-25T05:36:31;30.40;;;8.27;;
19842;SDS011;10082;51.038;6.992;2024-01-25T05:38:58;33.67;;;7.60;;
19842;SDS011;10082;51.038;6.992;2024-01-25T05:41:26;24.30;;;7.00;;
19842;SDS011;10082;51.038;6.992;2024-01-25T05:43:53;30.25;;;7.57;;
19842;SDS011;10082;51.038;6.992;2024-01-25T05:46:20;32.22;;;7.40;;
19842;SDS011;10082;51.038;6.992;2024-01-25T05:48:49;35.88;;;8.57;;
19842;SDS011;10082;51.038;6.992;2024-01-25T05:51:17;36.28;;;9.52;;
19842;SDS011;10082;51.038;6.992;2024-01-25T05:53:44;30.10;;;8.00;;
19842;SDS011;10082;51.038;6.992;2024-01-25T05:56:11;35.17;;;8.82;;
19842;SDS011;10082;51.038;6.992;2024-01-25T05:58:38;28.98;;;7.70;;
19842;SDS011;10082;51.038;6.992;2024-01-25T06:01:06;35.28;;;8.45;;
19842;SDS011;10082;51.038;6.992;2024-01-25T06:03:33;28.33;;;7.30;;
19842;SDS011;10082;51.038;6.992;2024-01-25T06:06:04;38.58;;;9.05;;
19842;SDS011;10082;51.038;6.992;2024-01-25T06:08:34;32.63;;;8.23;;
19842;SDS011;10082;51.038;6.992;2024-01-25T06:11:01;34.47;;;8.27;;
19842;SDS011;10082;51.038;6.992;2024-01-25T06:13:29;30.60;;;7.95;;
19842;SDS011;10082;51.038;6.992;2024-01-25T06:15:59;33.67;;;8.85;;
19842;SDS011;10082;51.038;6.992;2024-01-25T06:18:26;37.08;;;8.02;;
19842;SDS011;10082;51.038;6.992;2024-01-25T06:20:53;28.48;;;8.02;;
19842;SDS011;10082;51.038;6.992;2024-01-25T06:23:20;27.02;;;8.30;;
19842;SDS011;10082;51.038;6.992;2024-01-25T06:25:49;32.30;;;8.07;;
19842;SDS011;10082;51.038;6.992;2024-01-25T06:28:17;34.72;;;8.35;;
19842;SDS011;10082;51.038;6.992;2024-01-25T06:30:44;30.23;;;7.55;;
19842;SDS011;10082;51.038;6.992;2024-01-25T06:33:12;34.97;;;8.77;;
19842;SDS011;10082;51.038;6.992;2024-01-25T06:35:39;38.60;;;8.80;;
19842;SDS011;10082;51.038;6.992;2024-01-25T06:38:06;31.73;;;8.50;;
19842;SDS011;10082;51.038;6.992;2024-01-25T06:40:33;35.80;;;7.78;;
19842;SDS011;10082;51.038;6.992;2024-01-25T06:43:02;32.25;;;7.97;;
19842;SDS011;10082;51.038;6.992;2024-01-25T06:45:31;33.35;;;8.15;;
19842;SDS011;10082;51.038;6.992;2024-01-25T06:47:58;38.60;;;7.85;;
19842;SDS011;10082;51.038;6.992;2024-01-25T06:50:25;30.67;;;7.13;;
19842;SDS011;10082;51.038;6.992;2024-01-25T06:52:52;34.00;;;8.30;;
19842;SDS011;10082;51.038;6.992;2024-01-25T06:55:20;32.05;;;7.63;;
19842;SDS011;10082;51.038;6.992;2024-01-25T06:57:47;35.72;;;8.25;;
19842;SDS011;10082;51.038;6.992;2024-01-25T07:00:19;38.05;;;7.95;;
19842;SDS011;10082;51.038;6.992;2024-01-25T07:02:46;33.92;;;7.95;;
19842;SDS011;10082;51.038;6.992;2024-01-25T07:05:14;36.53;;;8.53;;
19842;SDS011;10082;51.038;6.992;2024-01-25T07:07:41;27.07;;;7.57;;
19842;SDS011;10082;51.038;6.992;2024-01-25T07:10:08;39.70;;;8.20;;
19842;SDS011;10082;51.038;6.992;2024-01-25T07:12:35;31.02;;;7.38;;
19842;SDS011;10082;51.038;6.992;2024-01-25T07:15:02;32.50;;;7.97;;
19842;SDS011;10082;51.038;6.992;2024-01-25T07:17:32;40.92;;;9.00;;
19842;SDS011;10082;51.038;6.992;2024-01-25T07:19:59;32.33;;;7.87;;
19842;SDS011;10082;51.038;6.992;2024-01-25T07:22:26;34.10;;;8.50;;
19842;SDS011;10082;51.038;6.992;2024-01-25T07:24:53;33.30;;;8.25;;
19842;SDS011;10082;51.038;6.992;2024-01-25T07:27:20;35.70;;;9.03;;
19842;SDS011;10082;51.038;6.992;2024-01-25T07:29:49;37.63;;;10.10;;
19842;SDS011;10082;51.038;6.992;2024-01-25T07:32:18;32.33;;;9.75;;
19842;SDS011;10082;51.038;6.992;2024-01-25T07:34:46;36.03;;;8.73;;
19842;SDS011;10082;51.038;6.992;2024-01-25T07:37:14;37.80;;;9.37;;
19842;SDS011;10082;51.038;6.992;2024-01-25T07:39:41;31.17;;;7.83;;
19842;SDS011;10082;51.038;6.992;2024-01-25T07:42:08;31.77;;;8.43;;
19842;SDS011;10082;51.038;6.992;2024-01-25T07:44:35;32.90;;;8.77;;
19842;SDS011;10082;51.038;6.992;2024-01-25T07:47:03;37.13;;;9.55;;
19842;SDS011;10082;51.038;6.992;2024-01-25T07:49:30;32.93;;;8.53;;
19842;SDS011;10082;51.038;6.992;2024-01-25T07:52:00;32.97;;;9.27;;
19842;SDS011;10082;51.038;6.992;2024-01-25T07:54:27;32.83;;;9.70;;
19842;SDS011;10082;51.038;6.992;2024-01-25T07:56:54;32.93;;;9.40;;
19842;SDS011;10082;51.038;6.992;2024-01-25T07:59:22;35.60;;;9.73;;
19842;SDS011;10082;51.038;6.992;2024-01-25T08:01:49;45.53;;;10.30;;
19842;SDS011;10082;51.038;6.992;2024-01-25T08:04:16;36.27;;;10.33;;
19842;SDS011;10082;51.038;6.992;2024-01-25T08:06:43;34.07;;;9.40;;
19842;SDS011;10082;51.038;6.992;2024-01-25T08:09:12;39.50;;;10.23;;
19842;SDS011;10082;51.038;6.992;2024-01-25T08:11:39;32.67;;;9.73;;
19842;SDS011;10082;51.038;6.992;2024-01-25T08:14:06;35.73;;;9.90;;
19842;SDS011;10082;51.038;6.992;2024-01-25T08:16:33;42.42;;;11.07;;
19842;SDS011;10082;51.038;6.992;2024-01-25T08:19:01;44.07;;;11.87;;
19842;SDS011;10082;51.038;6.992;2024-01-25T08:21:28;53.15;;;12.35;;
19842;SDS011;10082;51.038;6.992;2024-01-25T08:23:55;36.88;;;12.43;;
19842;SDS011;10082;51.038;6.992;2024-01-25T08:26:24;74.63;;;16.05;;
19842;SDS011;10082;51.038;6.992;2024-01-25T08:28:52;38.75;;;12.13;;
19842;SDS011;10082;51.038;6.992;2024-01-25T08:31:19;41.42;;;11.55;;
19842;SDS011;10082;51.038;6.992;2024-01-25T08:33:46;43.42;;;11.77;;
19842;SDS011;10082;51.038;6.992;2024-01-25T08:36:13;42.67;;;11.00;;
19842;SDS011;10082;51.038;6.992;2024-01-25T08:38:43;31.85;;;10.77;;
19842;SDS011;10082;51.038;6.992;2024-01-25T08:41:11;30.60;;;10.82;;
19842;SDS011;10082;51.038;6.992;2024-01-25T08:43:42;38.08;;;10.75;;
19842;SDS011;10082;51.038;6.992;2024-01-25T08:46:09;30.65;;;10.63;;
19842;SDS011;10082;51.038;6.992;2024-01-25T08:48:39;39.33;;;13.25;;
19842;SDS011;10082;51.038;6.992;2024-01-25T08:51:07;31.63;;;12.50;;
19842;SDS011;10082;51.038;6.992;2024-01-25T08:53:35;38.33;;;13.40;;
19842;SDS011;10082;51.038;6.992;2024-01-25T08:56:02;34.22;;;12.63;;
19842;SDS011;10082;51.038;6.992;2024-01-25T08:58:30;34.95;;;11.88;;
19842;SDS011;10082;51.038;6.992;2024-01-25T09:00:58;35.40;;;12.02;;
19842;SDS011;10082;51.038;6.992;2024-01-25T09:03:25;32.22;;;11.25;;
19842;SDS011;10082;51.038;6.992;2024-01-25T09:05:52;38.88;;;12.50;;
19842;SDS011;10082;51.038;6.992;2024-01-25T09:08:19;39.28;;;13.18;;
19842;SDS011;10082;51.038;6.992;2024-01-25T09:10:47;39.38;;;12.68;;
19842;SDS011;10082;51.038;6.992;2024-01-25T09:13:17;32.88;;;11.55;;
19842;SDS011;10082;51.038;6.992;2024-01-25T09:15:44;33.35;;;12.15;;
19842;SDS011;10082;51.038;6.992;2024-01-25T09:18:13;31.00;;;10.80;;
19842;SDS011;10082;51.038;6.992;2024-01-25T09:20:40;30.85;;;11.23;;
19842;SDS011;10082;51.038;6.992;2024-01-25T09:23:12;31.85;;;12.02;;
19842;SDS011;10082;51.038;6.992;2024-01-25T09:25:40;28.20;;;10.70;;
19842;SDS011;10082;51.038;6.992;2024-01-25T09:28:08;29.70;;;11.25;;
19842;SDS011;10082;51.038;6.992;2024-01-25T09:30:37;32.33;;;12.85;;
19842;SDS011;10082;51.038;6.992;2024-01-25T09:33:04;34.80;;;11.98;;
19842;SDS011;10082;51.038;6.992;2024-01-25T09:35:33;31.52;;;12.00;;
19842;SDS011;10082;51.038;6.992;2024-01-25T09:38:00;32.35;;;12.55;;
19842;SDS011;10082;51.038;6.992;2024-01-25T09:40:27;35.95;;;12.73;;
19842;SDS011;10082;51.038;6.992;2024-01-25T09:42:55;29.73;;;11.80;;
19842;SDS011;10082;51.038;6.992;2024-01-25T09:45:22;30.60;;;12.80;;
19842;SDS011;10082;51.038;6.992;2024-01-25T09:47:51;31.55;;;12.25;;
19842;SDS011;10082;51.038;6.992;2024-01-25T09:50:18;27.73;;;11.00;;
19842;SDS011;10082;51.038;6.992;2024-01-25T09:52:49;31.55;;;12.40;;
19842;SDS011;10082;51.038;6.992;2024-01-25T09:55:20;35.03;;;12.50;;
19842;SDS011;10082;51.038;6.992;2024-01-25T09:57:52;31.88;;;12.57;;
19842;SDS011;10082;51.038;6.992;2024-01-25T10:00:20;30.70;;;12.23;;
19842;SDS011;10082;51.038;6.992;2024-01-25T10:02:47;31.90;;;12.23;;
19842;SDS011;10082;51.038;6.992;2024-01-25T10:05:15;28.60;;;11.93;;
19842;SDS011;10082;51.038;6.992;2024-01-25T10:07:42;29.70;;;14.43;;
19842;SDS011;10082;51.038;6.992;2024-01-25T10:10:12;33.72;;;13.95;;
19842;SDS011;10082;51.038;6.992;2024-01-25T10:12:40;27.17;;;12.35;;
19842;SDS011;10082;51.038;6.992;2024-01-25T10:15:08;45.60;;;22.80;;
19842;SDS011;10082;51.038;6.992;2024-01-25T10:17:36;41.97;;;19.48;;
19842;SDS011;10082;51.038;6.992;2024-01-25T10:20:04;28.70;;;14.68;;
19842;SDS011;10082;51.038;6.992;2024-01-25T10:22:36;33.20;;;16.20;;
19842;SDS011;10082;51.038;6.992;2024-01-25T10:25:06;27.33;;;13.00;;
19842;SDS011;10082;51.038;6.992;2024-01-25T10:27:40;29.23;;;12.98;;
19842;SDS011;10082;51.038;6.992;2024-01-25T10:30:09;29.52;;;13.82;;
19842;SDS011;10082;51.038;6.992;2024-01-25T10:32:37;28.85;;;13.05;;
19842;SDS011;10082;51.038;6.992;2024-01-25T10:35:05;30.80;;;13.02;;
19842;SDS011;10082;51.038;6.992;2024-01-25T10:37:34;30.38;;;12.98;;
19842;SDS011;10082;51.038;6.992;2024-01-25T10:40:06;34.28;;;13.88;;
19842;SDS011;10082;51.038;6.992;2024-01-25T10:42:38;28.65;;;13.38;;
19842;SDS011;10082;51.038;6.992;2024-01-25T10:45:05;32.28;;;15.15;;
19842;SDS011;10082;51.038;6.992;2024-01-25T10:47:34;35.60;;;14.25;;
19842;SDS011;10082;51.038;6.992;2024-01-25T10:50:04;34.17;;;14.70;;
19842;SDS011;10082;51.038;6.992;2024-01-25T10:52:34;34.83;;;14.70;;
19842;SDS011;10082;51.038;6.992;2024-01-25T10:55:03;30.73;;;14.02;;
19842;SDS011;10082;51.038;6.992;2024-01-25T10:57:34;34.05;;;15.00;;
19842;SDS011;10082;51.038;6.992;2024-01-25T11:00:05;31.40;;;14.57;;
19842;SDS011;10082;51.038;6.992;2024-01-25T11:02:36;29.02;;;14.13;;
19842;SDS011;10082;51.038;6.992;2024-01-25T11:05:06;36.60;;;15.10;;
19842;SDS011;10082;51.038;6.992;2024-01-25T11:07:40;30.48;;;14.93;;
19842;SDS011;10082;51.038;6.992;2024-01-25T11:10:11;38.90;;;13.63;;
19842;SDS011;10082;51.038;6.992;2024-01-25T11:12:48;28.05;;;13.32;;
19842;SDS011;10082;51.038;6.992;2024-01-25T11:15:23;32.90;;;13.02;;
19842;SDS011;10082;51.038;6.992;2024-01-25T11:17:56;26.55;;;13.80;;
19842;SDS011;10082;51.038;6.992;2024-01-25T11:20:24;31.98;;;13.45;;
19842;SDS011;10082;51.038;6.992;2024-01-25T11:22:55;32.08;;;12.15;;
19842;SDS011;10082;51.038;6.992;2024-01-25T11:25:26;28.05;;;11.93;;
19842;SDS011;10082;51.038;6.992;2024-01-25T11:27:54;27.58;;;12.60;;
19842;SDS011;10082;51.038;6.992;2024-01-25T11:30:23;31.75;;;13.57;;
19842;SDS011;10082;51.038;6.992;2024-01-25T11:32:51;33.83;;;12.65;;
19842;SDS011;10082;51.038;6.992;2024-01-25T11:35:19;30.65;;;12.80;;
19842;SDS011;10082;51.038;6.992;2024-01-25T11:37:46;33.45;;;12.43;;
19842;SDS011;10082;51.038;6.992;2024-01-25T11:40:15;31.98;;;11.57;;
19842;SDS011;10082;51.038;6.992;2024-01-25T11:42:43;23.48;;;10.13;;
19842;SDS011;10082;51.038;6.992;2024-01-25T11:45:11;25.45;;;10.75;;
19842;SDS011;10082;51.038;6.992;2024-01-25T11:47:41;29.17;;;10.65;;
19842;SDS011;10082;51.038;6.992;2024-01-25T11:50:09;27.77;;;11.50;;
19842;SDS011;10082;51.038;6.992;2024-01-25T11:52:38;28.35;;;11.85;;
19842;SDS011;10082;51.038;6.992;2024-01-25T11:55:06;27.88;;;10.73;;
19842;SDS011;10082;51.038;6.992;2024-01-25T11:57:34;25.08;;;10.10;;
19842;SDS011;10082;51.038;6.992;2024-01-25T12:00:03;24.50;;;10.20;;
19842;SDS011;10082;51.038;6.992;2024-01-25T12:02:33;22.30;;;10.55;;
19842;SDS011;10082;51.038;6.992;2024-01-25T12:05:03;28.00;;;10.38;;
19842;SDS011;10082;51.038;6.992;2024-01-25T12:07:30;28.27;;;11.20;;
19842;SDS011;10082;51.038;6.992;2024-01-25T12:09:58;25.52;;;9.57;;
19842;SDS011;10082;51.038;6.992;2024-01-25T12:12:26;25.48;;;10.95;;
19842;SDS011;10082;51.038;6.992;2024-01-25T12:14:57;24.92;;;10.13;;
19842;SDS011;10082;51.038;6.992;2024-01-25T12:17:26;28.85;;;11.35;;
19842;SDS011;10082;51.038;6.992;2024-01-25T12:19:55;29.25;;;10.23;;
19842;SDS011;10082;51.038;6.992;2024-01-25T12:22:26;25.63;;;10.05;;
19842;SDS011;10082;51.038;6.992;2024-01-25T12:24:54;22.15;;;8.45;;
19842;SDS011;10082;51.038;6.992;2024-01-25T12:27:22;24.35;;;8.38;;
19842;SDS011;10082;51.038;6.992;2024-01-25T12:29:50;18.15;;;7.53;;
19842;SDS011;10082;51.038;6.992;2024-01-25T12:32:18;21.42;;;7.63;;
19842;SDS011;10082;51.038;6.992;2024-01-25T12:34:52;19.60;;;7.68;;
19842;SDS011;10082;51.038;6.992;2024-01-25T12:37:20;20.33;;;7.78;;
19842;SDS011;10082;51.038;6.992;2024-01-25T12:39:51;23.30;;;8.35;;
19842;SDS011;10082;51.038;6.992;2024-01-25T12:42:18;21.52;;;9.10;;
19842;SDS011;10082;51.038;6.992;2024-01-25T12:44:46;25.23;;;8.43;;
19842;SDS011;10082;51.038;6.992;2024-01-25T12:47:14;22.45;;;8.23;;
19842;SDS011;10082;51.038;6.992;2024-01-25T12:49:41;18.65;;;7.35;;
19842;SDS011;10082;51.038;6.992;2024-01-25T12:52:08;21.60;;;7.03;;
19842;SDS011;10082;51.038;6.992;2024-01-25T12:54:35;20.92;;;6.85;;
19842;SDS011;10082;51.038;6.992;2024-01-25T12:57:04;18.30;;;7.05;;
19842;SDS011;10082;51.038;6.992;2024-01-25T12:59:32;20.23;;;6.47;;
19842;SDS011;10082;51.038;6.992;2024-01-25T13:02:00;21.05;;;6.78;;
19842;SDS011;10082;51.038;6.992;2024-01-25T13:04:27;21.00;;;6.75;;
19842;SDS011;10082;51.038;6.992;2024-01-25T13:06:56;19.77;;;6.55;;
19842;SDS011;10082;51.038;6.992;2024-01-25T13:09:24;22.48;;;6.70;;
19842;SDS011;10082;51.038;6.992;2024-01-25T13:11:51;25.77;;;7.53;;
19842;SDS011;10082;51.038;6.992;2024-01-25T13:14:20;23.63;;;6.90;;
19842;SDS011;10082;51.038;6.992;2024-01-25T13:16:47;18.42;;;6.50;;
19842;SDS011;10082;51.038;6.992;2024-01-25T13:19:14;19.58;;;6.90;;
19842;SDS011;10082;51.038;6.992;2024-01-25T13:21:41;18.90;;;7.65;;
19842;SDS011;10082;51.038;6.992;2024-01-25T13:24:08;18.73;;;6.30;;
19842;SDS011;10082;51.038;6.992;2024-01-25T13:26:35;19.55;;;6.95;;
19842;SDS011;10082;51.038;6.992;2024-01-25T13:29:03;18.27;;;6.90;;
19842;SDS011;10082;51.038;6.992;2024-01-25T13:31:31;21.00;;;7.40;;
19842;SDS011;10082;51.038;6.992;2024-01-25T13:33:58;18.88;;;6.80;;
19842;SDS011;10082;51.038;6.992;2024-01-25T13:36:25;20.10;;;7.13;;
19842;SDS011;10082;51.038;6.992;2024-01-25T13:38:52;19.35;;;7.45;;
19842;SDS011;10082;51.038;6.992;2024-01-25T13:41:19;18.55;;;6.95;;
19842;SDS011;10082;51.038;6.992;2024-01-25T13:43:46;21.05;;;6.85;;
19842;SDS011;10082;51.038;6.992;2024-01-25T13:46:13;20.50;;;7.00;;
19842;SDS011;10082;51.038;6.992;2024-01-25T13:48:41;19.45;;;7.15;;
19842;SDS011;10082;51.038;6.992;2024-01-25T13:51:09;15.25;;;6.55;;
19842;SDS011;10082;51.038;6.992;2024-01-25T13:53:35;24.27;;;8.18;;
19842;SDS011;10082;51.038;6.992;2024-01-25T13:56:03;21.08;;;7.15;;
19842;SDS011;10082;51.038;6.992;2024-01-25T13:58:33;18.25;;;6.03;;
19842;SDS011;10082;51.038;6.992;2024-01-25T14:01:00;20.58;;;7.05;;
19842;SDS011;10082;51.038;6.992;2024-01-25T14:03:27;21.15;;;7.20;;
19842;SDS011;10082;51.038;6.992;2024-01-25T14:05:56;16.27;;;6.93;;
19842;SDS011;10082;51.038;6.992;2024-01-25T14:08:23;20.45;;;6.30;;
19842;SDS011;10082;51.038;6.992;2024-01-25T14:10:50;13.98;;;5.53;;
19842;SDS011;10082;51.038;6.992;2024-01-25T14:13:17;21.67;;;6.85;;
19842;SDS011;10082;51.038;6.992;2024-01-25T14:15:44;22.98;;;6.82;;
19842;SDS011;10082;51.038;6.992;2024-01-25T14:18:11;21.98;;;7.25;;
19842;SDS011;10082;51.038;6.992;2024-01-25T14:20:39;17.25;;;6.53;;
19842;SDS011;10082;51.038;6.992;2024-01-25T14:23:07;22.70;;;6.82;;
19842;SDS011;10082;51.038;6.992;2024-01-25T14:25:34;16.95;;;6.97;;
19842;SDS011;10082;51.038;6.992;2024-01-25T14:28:01;17.77;;;6.45;;
19842;SDS011;10082;51.038;6.992;2024-01-25T14:30:28;19.20;;;6.25;;
19842;SDS011;10082;51.038;6.992;2024-01-25T14:32:56;19.25;;;6.88;;
19842;SDS011;10082;51.038;6.992;2024-01-25T14:35:23;22.08;;;6.68;;